sensor_id;sensor_type;location;lat;lon;timestamp;P1;P2;P0
63707;PMS5003;67643;-34.198;22.084;2023-08-30T00:01:19;35;30;
63707;PMS5003;67643;-34.198;22.084;2023-08-30T00:03:48;31;28;
63707;PMS5003;67643;-34.198;22.084;2023-08-30T00:06:16;36;33;
63707;PMS5003;67643;-34.198;22.084;2023-08-30T00:08:44;31;29;
63707;PMS5003;67643;-34.198;22.084;2023-08-30T00:11:13;35;31;
63707;PMS5003;67643;-34.198;22.084;2023-08-30T00:13:42;33;30;
63707;PMS5003;67643;-34.198;22.084;2023-08-30T00:16:11;37;34;
63707;PMS5003;67643;-34.198;22.084;2023-08-30T00:18:39;32;30;
63707;PMS5003;67643;-34.198;22.084;2023-08-30T00:21:07;33;33;
63707;PMS5003;67643;-34.198;22.084;2023-08-30T00:23:35;31;29;
63707;PMS5003;67643;-34.198;22.084;2023-08-30T00:26:03;30;29;
63707;PMS5003;67643;-34.198;22.084;2023-08-30T00:28:31;38;34;
63707;PMS5003;67643;-34.198;22.084;2023-08-30T00:31:00;35;31;
63707;PMS5003;67643;-34.198;22.084;2023-08-30T00:33:28;38;34;
63707;PMS5003;67643;-34.198;22.084;2023-08-30T00:35:56;40;36;
63707;PMS5003;67643;-34.198;22.084;2023-08-30T00:38:25;40;35;
63707;PMS5003;67643;-34.198;22.084;2023-08-30T00:40:54;33;31;
63707;PMS5003;67643;-34.198;22.084;2023-08-30T00:43:23;36;31;
63707;PMS5003;67643;-34.198;22.084;2023-08-30T00:45:51;31;29;
63707;PMS5003;67643;-34.198;22.084;2023-08-30T00:48:20;40;37;
63707;PMS5003;67643;-34.198;22.084;2023-08-30T00:50:48;38;33;
63707;PMS5003;67643;-34.198;22.084;2023-08-30T00:53:16;38;35;
63707;PMS5003;67643;-34.198;22.084;2023-08-30T00:55:45;39;33;
63707;PMS5003;67643;-34.198;22.084;2023-08-30T00:58:14;33;31;
63707;PMS5003;67643;-34.198;22.084;2023-08-30T01:00:43;31;30;
63707;PMS5003;67643;-34.198;22.084;2023-08-30T01:03:11;41;37;
63707;PMS5003;67643;-34.198;22.084;2023-08-30T01:05:40;35;30;
63707;PMS5003;67643;-34.198;22.084;2023-08-30T01:08:08;39;35;
63707;PMS5003;67643;-34.198;22.084;2023-08-30T01:10:47;32;28;
63707;PMS5003;67643;-34.198;22.084;2023-08-30T01:13:21;32;32;
63707;PMS5003;67643;-34.198;22.084;2023-08-30T01:15:51;37;35;
63707;PMS5003;67643;-34.198;22.084;2023-08-30T01:18:22;36;32;
63707;PMS5003;67643;-34.198;22.084;2023-08-30T01:20:56;35;33;
63707;PMS5003;67643;-34.198;22.084;2023-08-30T01:23:29;34;33;
63707;PMS5003;67643;-34.198;22.084;2023-08-30T01:26:09;38;29;
63707;PMS5003;67643;-34.198;22.084;2023-08-30T01:28:40;36;33;
63707;PMS5003;67643;-34.198;22.084;2023-08-30T01:31:08;36;34;
63707;PMS5003;67643;-34.198;22.084;2023-08-30T01:33:37;33;32;
63707;PMS5003;67643;-34.198;22.084;2023-08-30T01:36:07;41;32;
63707;PMS5003;67643;-34.198;22.084;2023-08-30T01:38:35;36;31;
63707;PMS5003;67643;-34.198;22.084;2023-08-30T01:41:05;38;35;
63707;PMS5003;67643;-34.198;22.084;2023-08-30T01:43:34;37;33;
63707;PMS5003;67643;-34.198;22.084;2023-08-30T01:46:03;35;31;
63707;PMS5003;67643;-34.198;22.084;2023-08-30T01:48:33;33;32;
63707;PMS5003;67643;-34.198;22.084;2023-08-30T01:51:02;37;35;
63707;PMS5003;67643;-34.198;22.084;2023-08-30T01:53:32;33;31;
63707;PMS5003;67643;-34.198;22.084;2023-08-30T01:56:01;41;35;
63707;PMS5003;67643;-34.198;22.084;2023-08-30T01:58:30;41;35;
63707;PMS5003;67643;-34.198;22.084;2023-08-30T02:00:58;31;30;
63707;PMS5003;67643;-34.198;22.084;2023-08-30T02:03:28;35;33;
63707;PMS5003;67643;-34.198;22.084;2023-08-30T02:06:00;31;29;
63707;PMS5003;67643;-34.198;22.084;2023-08-30T02:08:36;35;30;
63707;PMS5003;67643;-34.198;22.084;2023-08-30T02:11:13;37;33;
63707;PMS5003;67643;-34.198;22.084;2023-08-30T02:13:46;33;30;
63707;PMS5003;67643;-34.198;22.084;2023-08-30T02:16:15;31;28;
63707;PMS5003;67643;-34.198;22.084;2023-08-30T02:18:44;37;32;
63707;PMS5003;67643;-34.198;22.084;2023-08-30T02:21:14;32;30;
63707;PMS5003;67643;-34.198;22.084;2023-08-30T02:23:42;42;34;
63707;PMS5003;67643;-34.198;22.084;2023-08-30T02:26:11;34;31;
63707;PMS5003;67643;-34.198;22.084;2023-08-30T02:28:39;42;39;
63707;PMS5003;67643;-34.198;22.084;2023-08-30T02:31:07;33;30;
63707;PMS5003;67643;-34.198;22.084;2023-08-30T02:33:36;34;32;
63707;PMS5003;67643;-34.198;22.084;2023-08-30T02:36:04;29;28;
63707;PMS5003;67643;-34.198;22.084;2023-08-30T02:38:33;32;30;
63707;PMS5003;67643;-34.198;22.084;2023-08-30T02:41:02;29;28;
63707;PMS5003;67643;-34.198;22.084;2023-08-30T02:43:30;37;31;
63707;PMS5003;67643;-34.198;22.084;2023-08-30T02:45:59;31;28;
63707;PMS5003;67643;-34.198;22.084;2023-08-30T02:48:28;31;31;
63707;PMS5003;67643;-34.198;22.084;2023-08-30T02:50:56;36;29;
63707;PMS5003;67643;-34.198;22.084;2023-08-30T02:53:24;30;30;
63707;PMS5003;67643;-34.198;22.084;2023-08-30T02:55:52;28;27;
63707;PMS5003;67643;-34.198;22.084;2023-08-30T02:58:20;35;32;
63707;PMS5003;67643;-34.198;22.084;2023-08-30T03:00:48;34;30;
63707;PMS5003;67643;-34.198;22.084;2023-08-30T03:03:17;30;27;
63707;PMS5003;67643;-34.198;22.084;2023-08-30T03:05:45;31;26;
63707;PMS5003;67643;-34.198;22.084;2023-08-30T03:08:13;33;27;
63707;PMS5003;67643;-34.198;22.084;2023-08-30T03:10:41;32;29;
63707;PMS5003;67643;-34.198;22.084;2023-08-30T03:13:09;33;29;
63707;PMS5003;67643;-34.198;22.084;2023-08-30T03:15:38;31;28;
63707;PMS5003;67643;-34.198;22.084;2023-08-30T03:18:07;34;28;
63707;PMS5003;67643;-34.198;22.084;2023-08-30T03:20:35;31;29;
63707;PMS5003;67643;-34.198;22.084;2023-08-30T03:23:03;28;27;
63707;PMS5003;67643;-34.198;22.084;2023-08-30T03:25:31;26;25;
63707;PMS5003;67643;-34.198;22.084;2023-08-30T03:27:59;29;28;
63707;PMS5003;67643;-34.198;22.084;2023-08-30T03:30:29;27;27;
63707;PMS5003;67643;-34.198;22.084;2023-08-30T03:32:57;29;29;
63707;PMS5003;67643;-34.198;22.084;2023-08-30T03:35:26;35;29;
63707;PMS5003;67643;-34.198;22.084;2023-08-30T03:37:54;26;23;
63707;PMS5003;67643;-34.198;22.084;2023-08-30T03:40:22;30;28;
63707;PMS5003;67643;-34.198;22.084;2023-08-30T03:42:50;28;24;
63707;PMS5003;67643;-34.198;22.084;2023-08-30T03:45:19;29;29;
63707;PMS5003;67643;-34.198;22.084;2023-08-30T03:47:47;27;24;
63707;PMS5003;67643;-34.198;22.084;2023-08-30T03:50:15;38;33;
63707;PMS5003;67643;-34.198;22.084;2023-08-30T03:52:44;25;23;
63707;PMS5003;67643;-34.198;22.084;2023-08-30T03:55:12;28;28;
63707;PMS5003;67643;-34.198;22.084;2023-08-30T03:57:40;28;24;
63707;PMS5003;67643;-34.198;22.084;2023-08-30T04:00:09;29;27;
63707;PMS5003;67643;-34.198;22.084;2023-08-30T04:02:38;32;27;
63707;PMS5003;67643;-34.198;22.084;2023-08-30T04:05:07;30;27;
63707;PMS5003;67643;-34.198;22.084;2023-08-30T06:05:04;25;21;
63707;PMS5003;67643;-34.198;22.084;2023-08-30T06:07:33;28;25;
63707;PMS5003;67643;-34.198;22.084;2023-08-30T06:10:01;23;20;
63707;PMS5003;67643;-34.198;22.084;2023-08-30T06:12:30;21;21;
63707;PMS5003;67643;-34.198;22.084;2023-08-30T06:14:58;22;20;
63707;PMS5003;67643;-34.198;22.084;2023-08-30T06:17:26;23;22;
63707;PMS5003;67643;-34.198;22.084;2023-08-30T06:19:54;20;19;
63707;PMS5003;67643;-34.198;22.084;2023-08-30T06:22:22;24;23;
63707;PMS5003;67643;-34.198;22.084;2023-08-30T06:24:51;25;23;
63707;PMS5003;67643;-34.198;22.084;2023-08-30T06:27:19;25;22;
63707;PMS5003;67643;-34.198;22.084;2023-08-30T06:29:47;30;27;
63707;PMS5003;67643;-34.198;22.084;2023-08-30T06:32:16;28;24;
63707;PMS5003;67643;-34.198;22.084;2023-08-30T06:34:44;27;24;
63707;PMS5003;67643;-34.198;22.084;2023-08-30T06:37:12;25;21;
63707;PMS5003;67643;-34.198;22.084;2023-08-30T06:39:41;18;18;
63707;PMS5003;67643;-34.198;22.084;2023-08-30T06:42:09;29;26;
63707;PMS5003;67643;-34.198;22.084;2023-08-30T06:44:37;24;22;
63707;PMS5003;67643;-34.198;22.084;2023-08-30T06:47:05;25;22;
63707;PMS5003;67643;-34.198;22.084;2023-08-30T06:49:33;24;22;
63707;PMS5003;67643;-34.198;22.084;2023-08-30T06:52:02;21;19;
63707;PMS5003;67643;-34.198;22.084;2023-08-30T06:54:32;21;18;
63707;PMS5003;67643;-34.198;22.084;2023-08-30T06:57:02;18;18;
63707;PMS5003;67643;-34.198;22.084;2023-08-30T06:59:30;20;19;
63707;PMS5003;67643;-34.198;22.084;2023-08-30T07:01:59;16;16;
63707;PMS5003;67643;-34.198;22.084;2023-08-30T07:04:27;21;18;
63707;PMS5003;67643;-34.198;22.084;2023-08-30T07:06:56;20;18;
63707;PMS5003;67643;-34.198;22.084;2023-08-30T07:09:24;19;17;
63707;PMS5003;67643;-34.198;22.084;2023-08-30T07:11:52;20;18;
63707;PMS5003;67643;-34.198;22.084;2023-08-30T07:14:21;22;21;
63707;PMS5003;67643;-34.198;22.084;2023-08-30T07:16:49;15;14;
63707;PMS5003;67643;-34.198;22.084;2023-08-30T07:19:18;19;16;
63707;PMS5003;67643;-34.198;22.084;2023-08-30T07:21:46;15;14;
63707;PMS5003;67643;-34.198;22.084;2023-08-30T07:24:14;18;17;
63707;PMS5003;67643;-34.198;22.084;2023-08-30T07:26:43;17;14;
63707;PMS5003;67643;-34.198;22.084;2023-08-30T07:29:11;13;13;
63707;PMS5003;67643;-34.198;22.084;2023-08-30T07:31:39;15;15;
63707;PMS5003;67643;-34.198;22.084;2023-08-30T07:34:08;20;13;
63707;PMS5003;67643;-34.198;22.084;2023-08-30T07:36:36;14;14;
63707;PMS5003;67643;-34.198;22.084;2023-08-30T07:39:04;14;14;
63707;PMS5003;67643;-34.198;22.084;2023-08-30T07:41:33;14;12;
63707;PMS5003;67643;-34.198;22.084;2023-08-30T07:44:01;16;13;
63707;PMS5003;67643;-34.198;22.084;2023-08-30T07:46:30;13;12;
63707;PMS5003;67643;-34.198;22.084;2023-08-30T07:48:58;16;16;
63707;PMS5003;67643;-34.198;22.084;2023-08-30T07:51:27;15;13;
63707;PMS5003;67643;-34.198;22.084;2023-08-30T07:54:00;17;12;
63707;PMS5003;67643;-34.198;22.084;2023-08-30T07:56:28;13;13;
63707;PMS5003;67643;-34.198;22.084;2023-08-30T07:58:57;14;13;
63707;PMS5003;67643;-34.198;22.084;2023-08-30T08:01:25;13;13;
63707;PMS5003;67643;-34.198;22.084;2023-08-30T08:03:53;13;12;
63707;PMS5003;67643;-34.198;22.084;2023-08-30T08:06:22;14;14;
63707;PMS5003;67643;-34.198;22.084;2023-08-30T08:08:50;13;12;
63707;PMS5003;67643;-34.198;22.084;2023-08-30T08:11:18;17;13;
63707;PMS5003;67643;-34.198;22.084;2023-08-30T08:13:47;14;14;
63707;PMS5003;67643;-34.198;22.084;2023-08-30T08:16:16;16;14;
63707;PMS5003;67643;-34.198;22.084;2023-08-30T08:18:44;12;12;
63707;PMS5003;67643;-34.198;22.084;2023-08-30T08:21:13;15;12;
63707;PMS5003;67643;-34.198;22.084;2023-08-30T08:23:41;15;15;
63707;PMS5003;67643;-34.198;22.084;2023-08-30T08:26:10;17;15;
63707;PMS5003;67643;-34.198;22.084;2023-08-30T08:28:38;16;12;
63707;PMS5003;67643;-34.198;22.084;2023-08-30T08:31:06;13;11;
63707;PMS5003;67643;-34.198;22.084;2023-08-30T08:33:34;16;16;
63707;PMS5003;67643;-34.198;22.084;2023-08-30T08:36:03;15;14;
63707;PMS5003;67643;-34.198;22.084;2023-08-30T08:38:32;16;16;
63707;PMS5003;67643;-34.198;22.084;2023-08-30T08:41:01;13;13;
63707;PMS5003;67643;-34.198;22.084;2023-08-30T08:43:32;14;14;
63707;PMS5003;67643;-34.198;22.084;2023-08-30T08:46:01;20;15;
63707;PMS5003;67643;-34.198;22.084;2023-08-30T08:48:31;17;15;
63707;PMS5003;67643;-34.198;22.084;2023-08-30T08:51:06;15;13;
63707;PMS5003;67643;-34.198;22.084;2023-08-30T08:53:34;16;14;
63707;PMS5003;67643;-34.198;22.084;2023-08-30T08:56:04;18;14;
63707;PMS5003;67643;-34.198;22.084;2023-08-30T08:58:34;13;13;
63707;PMS5003;67643;-34.198;22.084;2023-08-30T09:01:03;14;12;
63707;PMS5003;67643;-34.198;22.084;2023-08-30T09:03:33;13;12;
63707;PMS5003;67643;-34.198;22.084;2023-08-30T09:06:02;15;12;
63707;PMS5003;67643;-34.198;22.084;2023-08-30T09:08:31;15;15;
63707;PMS5003;67643;-34.198;22.084;2023-08-30T09:11:00;17;15;
63707;PMS5003;67643;-34.198;22.084;2023-08-30T09:13:28;14;12;
63707;PMS5003;67643;-34.198;22.084;2023-08-30T09:15:56;16;12;
63707;PMS5003;67643;-34.198;22.084;2023-08-30T09:18:26;15;12;
63707;PMS5003;67643;-34.198;22.084;2023-08-30T09:21:04;12;12;
63707;PMS5003;67643;-34.198;22.084;2023-08-30T09:23:33;15;13;
63707;PMS5003;67643;-34.198;22.084;2023-08-30T09:26:02;17;16;
63707;PMS5003;67643;-34.198;22.084;2023-08-30T09:28:31;14;14;
63707;PMS5003;67643;-34.198;22.084;2023-08-30T09:31:16;13;12;
63707;PMS5003;67643;-34.198;22.084;2023-08-30T09:33:45;12;12;
63707;PMS5003;67643;-34.198;22.084;2023-08-30T09:36:13;18;16;
63707;PMS5003;67643;-34.198;22.084;2023-08-30T09:38:48;15;15;
63707;PMS5003;67643;-34.198;22.084;2023-08-30T09:41:17;20;15;
63707;PMS5003;67643;-34.198;22.084;2023-08-30T09:43:46;12;10;
63707;PMS5003;67643;-34.198;22.084;2023-08-30T09:46:14;15;14;
63707;PMS5003;67643;-34.198;22.084;2023-08-30T09:48:43;19;14;
63707;PMS5003;67643;-34.198;22.084;2023-08-30T09:51:12;15;14;
63707;PMS5003;67643;-34.198;22.084;2023-08-30T09:53:42;17;14;
63707;PMS5003;67643;-34.198;22.084;2023-08-30T09:56:12;12;11;
63707;PMS5003;67643;-34.198;22.084;2023-08-30T09:58:41;15;15;
63707;PMS5003;67643;-34.198;22.084;2023-08-30T10:01:10;15;14;
63707;PMS5003;67643;-34.198;22.084;2023-08-30T10:03:38;13;13;
63707;PMS5003;67643;-34.198;22.084;2023-08-30T10:06:08;13;13;
63707;PMS5003;67643;-34.198;22.084;2023-08-30T10:08:36;18;16;
63707;PMS5003;67643;-34.198;22.084;2023-08-30T10:11:05;17;14;
63707;PMS5003;67643;-34.198;22.084;2023-08-30T10:13:35;16;15;
63707;PMS5003;67643;-34.198;22.084;2023-08-30T10:16:05;16;14;
63707;PMS5003;67643;-34.198;22.084;2023-08-30T10:18:37;11;11;
63707;PMS5003;67643;-34.198;22.084;2023-08-30T10:21:07;15;14;
63707;PMS5003;67643;-34.198;22.084;2023-08-30T10:23:39;17;16;
63707;PMS5003;67643;-34.198;22.084;2023-08-30T10:26:07;16;14;
63707;PMS5003;67643;-34.198;22.084;2023-08-30T10:28:36;17;15;
63707;PMS5003;67643;-34.198;22.084;2023-08-30T10:31:05;15;14;
63707;PMS5003;67643;-34.198;22.084;2023-08-30T10:33:44;15;13;
63707;PMS5003;67643;-34.198;22.084;2023-08-30T10:36:20;17;14;
63707;PMS5003;67643;-34.198;22.084;2023-08-30T10:38:49;16;14;
63707;PMS5003;67643;-34.198;22.084;2023-08-30T10:41:22;14;14;
63707;PMS5003;67643;-34.198;22.084;2023-08-30T10:43:52;15;14;
63707;PMS5003;67643;-34.198;22.084;2023-08-30T10:46:30;19;17;
63707;PMS5003;67643;-34.198;22.084;2023-08-30T10:49:15;15;14;
63707;PMS5003;67643;-34.198;22.084;2023-08-30T10:51:53;16;14;
63707;PMS5003;67643;-34.198;22.084;2023-08-30T10:54:22;15;14;
63707;PMS5003;67643;-34.198;22.084;2023-08-30T10:56:54;17;15;
63707;PMS5003;67643;-34.198;22.084;2023-08-30T10:59:24;17;16;
63707;PMS5003;67643;-34.198;22.084;2023-08-30T11:01:52;15;15;
63707;PMS5003;67643;-34.198;22.084;2023-08-30T11:04:21;19;15;
63707;PMS5003;67643;-34.198;22.084;2023-08-30T11:06:50;16;15;
63707;PMS5003;67643;-34.198;22.084;2023-08-30T11:09:20;20;16;
63707;PMS5003;67643;-34.198;22.084;2023-08-30T11:11:50;16;15;
63707;PMS5003;67643;-34.198;22.084;2023-08-30T11:14:19;20;19;
63707;PMS5003;67643;-34.198;22.084;2023-08-30T11:16:47;18;17;
63707;PMS5003;67643;-34.198;22.084;2023-08-30T11:19:15;20;18;
63707;PMS5003;67643;-34.198;22.084;2023-08-30T11:21:44;18;18;
63707;PMS5003;67643;-34.198;22.084;2023-08-30T11:24:12;23;20;
63707;PMS5003;67643;-34.198;22.084;2023-08-30T11:26:42;20;18;
63707;PMS5003;67643;-34.198;22.084;2023-08-30T11:29:11;19;17;
63707;PMS5003;67643;-34.198;22.084;2023-08-30T11:31:40;18;17;
63707;PMS5003;67643;-34.198;22.084;2023-08-30T11:34:08;20;19;
63707;PMS5003;67643;-34.198;22.084;2023-08-30T11:36:36;20;18;
63707;PMS5003;67643;-34.198;22.084;2023-08-30T11:39:05;18;17;
63707;PMS5003;67643;-34.198;22.084;2023-08-30T11:41:35;21;20;
63707;PMS5003;67643;-34.198;22.084;2023-08-30T11:44:05;19;18;
63707;PMS5003;67643;-34.198;22.084;2023-08-30T11:46:34;21;19;
63707;PMS5003;67643;-34.198;22.084;2023-08-30T11:49:03;22;20;
63707;PMS5003;67643;-34.198;22.084;2023-08-30T11:51:31;22;19;
63707;PMS5003;67643;-34.198;22.084;2023-08-30T11:54:00;20;20;
63707;PMS5003;67643;-34.198;22.084;2023-08-30T11:56:29;21;20;
63707;PMS5003;67643;-34.198;22.084;2023-08-30T11:58:57;18;16;
63707;PMS5003;67643;-34.198;22.084;2023-08-30T12:01:26;20;20;
63707;PMS5003;67643;-34.198;22.084;2023-08-30T12:03:54;19;17;
63707;PMS5003;67643;-34.198;22.084;2023-08-30T12:06:23;20;19;
63707;PMS5003;67643;-34.198;22.084;2023-08-30T12:08:57;26;23;
63707;PMS5003;67643;-34.198;22.084;2023-08-30T12:11:25;23;22;
63707;PMS5003;67643;-34.198;22.084;2023-08-30T12:14:00;23;22;
63707;PMS5003;67643;-34.198;22.084;2023-08-30T12:16:29;27;22;
63707;PMS5003;67643;-34.198;22.084;2023-08-30T12:19:07;25;21;
63707;PMS5003;67643;-34.198;22.084;2023-08-30T12:21:39;19;19;
63707;PMS5003;67643;-34.198;22.084;2023-08-30T12:24:08;20;18;
63707;PMS5003;67643;-34.198;22.084;2023-08-30T12:26:37;23;21;
63707;PMS5003;67643;-34.198;22.084;2023-08-30T12:29:05;21;19;
63707;PMS5003;67643;-34.198;22.084;2023-08-30T12:31:33;22;21;
63707;PMS5003;67643;-34.198;22.084;2023-08-30T12:34:01;20;17;
63707;PMS5003;67643;-34.198;22.084;2023-08-30T12:36:29;21;19;
63707;PMS5003;67643;-34.198;22.084;2023-08-30T12:38:59;16;16;
63707;PMS5003;67643;-34.198;22.084;2023-08-30T12:41:27;18;18;
63707;PMS5003;67643;-34.198;22.084;2023-08-30T12:43:56;22;19;
63707;PMS5003;67643;-34.198;22.084;2023-08-30T12:46:25;26;24;
63707;PMS5003;67643;-34.198;22.084;2023-08-30T12:48:53;24;19;
63707;PMS5003;67643;-34.198;22.084;2023-08-30T12:51:21;22;22;
63707;PMS5003;67643;-34.198;22.084;2023-08-30T12:53:49;22;20;
63707;PMS5003;67643;-34.198;22.084;2023-08-30T12:56:18;23;22;
63707;PMS5003;67643;-34.198;22.084;2023-08-30T12:58:46;25;22;
63707;PMS5003;67643;-34.198;22.084;2023-08-30T13:01:14;28;25;
63707;PMS5003;67643;-34.198;22.084;2023-08-30T13:03:43;24;21;
63707;PMS5003;67643;-34.198;22.084;2023-08-30T13:06:11;25;25;
63707;PMS5003;67643;-34.198;22.084;2023-08-30T13:08:39;32;29;
63707;PMS5003;67643;-34.198;22.084;2023-08-30T13:11:07;29;26;
63707;PMS5003;67643;-34.198;22.084;2023-08-30T13:13:35;26;25;
63707;PMS5003;67643;-34.198;22.084;2023-08-30T13:16:04;33;31;
63707;PMS5003;67643;-34.198;22.084;2023-08-30T13:18:32;31;26;
63707;PMS5003;67643;-34.198;22.084;2023-08-30T13:21:01;29;27;
63707;PMS5003;67643;-34.198;22.084;2023-08-30T13:23:29;29;27;
63707;PMS5003;67643;-34.198;22.084;2023-08-30T13:25:58;31;29;
63707;PMS5003;67643;-34.198;22.084;2023-08-30T13:28:26;33;27;
63707;PMS5003;67643;-34.198;22.084;2023-08-30T13:30:55;37;31;
63707;PMS5003;67643;-34.198;22.084;2023-08-30T13:33:23;28;26;
63707;PMS5003;67643;-34.198;22.084;2023-08-30T13:35:51;32;29;
63707;PMS5003;67643;-34.198;22.084;2023-08-30T13:38:20;42;31;
63707;PMS5003;67643;-34.198;22.084;2023-08-30T13:40:48;34;31;
63707;PMS5003;67643;-34.198;22.084;2023-08-30T13:43:16;35;32;
63707;PMS5003;67643;-34.198;22.084;2023-08-30T13:45:44;28;27;
63707;PMS5003;67643;-34.198;22.084;2023-08-30T13:48:12;30;30;
63707;PMS5003;67643;-34.198;22.084;2023-08-30T13:50:41;30;27;
63707;PMS5003;67643;-34.198;22.084;2023-08-30T13:53:09;32;29;
63707;PMS5003;67643;-34.198;22.084;2023-08-30T13:55:37;36;29;
63707;PMS5003;67643;-34.198;22.084;2023-08-30T13:58:06;36;32;
63707;PMS5003;67643;-34.198;22.084;2023-08-30T14:00:34;32;31;
63707;PMS5003;67643;-34.198;22.084;2023-08-30T14:03:03;36;33;
63707;PMS5003;67643;-34.198;22.084;2023-08-30T14:05:32;33;33;
63707;PMS5003;67643;-34.198;22.084;2023-08-30T14:08:00;39;35;
63707;PMS5003;67643;-34.198;22.084;2023-08-30T14:10:28;43;38;
63707;PMS5003;67643;-34.198;22.084;2023-08-30T14:12:57;37;33;
63707;PMS5003;67643;-34.198;22.084;2023-08-30T14:15:25;42;39;
63707;PMS5003;67643;-34.198;22.084;2023-08-30T14:17:54;41;37;
63707;PMS5003;67643;-34.198;22.084;2023-08-30T14:20:23;50;41;
63707;PMS5003;67643;-34.198;22.084;2023-08-30T14:22:52;41;36;
63707;PMS5003;67643;-34.198;22.084;2023-08-30T14:25:20;45;38;
63707;PMS5003;67643;-34.198;22.084;2023-08-30T14:27:48;45;38;
63707;PMS5003;67643;-34.198;22.084;2023-08-30T14:30:17;42;40;
63707;PMS5003;67643;-34.198;22.084;2023-08-30T14:32:45;45;42;
63707;PMS5003;67643;-34.198;22.084;2023-08-30T14:35:13;45;40;
63707;PMS5003;67643;-34.198;22.084;2023-08-30T14:37:42;44;36;
63707;PMS5003;67643;-34.198;22.084;2023-08-30T14:40:10;50;43;
63707;PMS5003;67643;-34.198;22.084;2023-08-30T14:42:39;44;41;
63707;PMS5003;67643;-34.198;22.084;2023-08-30T14:45:08;50;46;
63707;PMS5003;67643;-34.198;22.084;2023-08-30T14:47:37;51;42;
63707;PMS5003;67643;-34.198;22.084;2023-08-30T14:50:05;48;44;
63707;PMS5003;67643;-34.198;22.084;2023-08-30T14:52:34;49;40;
63707;PMS5003;67643;-34.198;22.084;2023-08-30T14:55:03;52;47;
63707;PMS5003;67643;-34.198;22.084;2023-08-30T14:57:32;47;40;
63707;PMS5003;67643;-34.198;22.084;2023-08-30T15:00:01;40;39;
63707;PMS5003;67643;-34.198;22.084;2023-08-30T15:02:29;53;45;
63707;PMS5003;67643;-34.198;22.084;2023-08-30T15:04:57;46;42;
63707;PMS5003;67643;-34.198;22.084;2023-08-30T15:07:25;49;45;
63707;PMS5003;67643;-34.198;22.084;2023-08-30T15:09:53;55;45;
63707;PMS5003;67643;-34.198;22.084;2023-08-30T15:12:21;51;47;
63707;PMS5003;67643;-34.198;22.084;2023-08-30T15:14:49;49;44;
63707;PMS5003;67643;-34.198;22.084;2023-08-30T15:17:18;54;47;
63707;PMS5003;67643;-34.198;22.084;2023-08-30T15:19:47;51;44;
63707;PMS5003;67643;-34.198;22.084;2023-08-30T15:22:15;54;45;
63707;PMS5003;67643;-34.198;22.084;2023-08-30T15:24:43;44;43;
63707;PMS5003;67643;-34.198;22.084;2023-08-30T15:27:11;53;46;
63707;PMS5003;67643;-34.198;22.084;2023-08-30T15:29:40;52;44;
63707;PMS5003;67643;-34.198;22.084;2023-08-30T15:32:09;56;48;
63707;PMS5003;67643;-34.198;22.084;2023-08-30T15:34:37;53;44;
63707;PMS5003;67643;-34.198;22.084;2023-08-30T15:37:06;52;48;
63707;PMS5003;67643;-34.198;22.084;2023-08-30T15:39:34;48;42;
63707;PMS5003;67643;-34.198;22.084;2023-08-30T15:42:03;52;48;
63707;PMS5003;67643;-34.198;22.084;2023-08-30T15:44:32;56;46;
63707;PMS5003;67643;-34.198;22.084;2023-08-30T15:47:00;50;48;
63707;PMS5003;67643;-34.198;22.084;2023-08-30T15:49:29;53;45;
63707;PMS5003;67643;-34.198;22.084;2023-08-30T15:52:02;45;43;
63707;PMS5003;67643;-34.198;22.084;2023-08-30T15:54:30;51;43;
63707;PMS5003;67643;-34.198;22.084;2023-08-30T15:56:58;53;47;
63707;PMS5003;67643;-34.198;22.084;2023-08-30T15:59:28;54;46;
63707;PMS5003;67643;-34.198;22.084;2023-08-30T16:01:57;50;46;
63707;PMS5003;67643;-34.198;22.084;2023-08-30T16:04:25;57;50;
63707;PMS5003;67643;-34.198;22.084;2023-08-30T16:06:54;50;46;
63707;PMS5003;67643;-34.198;22.084;2023-08-30T16:09:22;56;49;
63707;PMS5003;67643;-34.198;22.084;2023-08-30T16:11:51;65;55;
63707;PMS5003;67643;-34.198;22.084;2023-08-30T16:14:20;50;47;
63707;PMS5003;67643;-34.198;22.084;2023-08-30T16:16:48;53;48;
63707;PMS5003;67643;-34.198;22.084;2023-08-30T16:19:16;58;47;
63707;PMS5003;67643;-34.198;22.084;2023-08-30T16:21:45;50;47;
63707;PMS5003;67643;-34.198;22.084;2023-08-30T16:24:13;53;46;
63707;PMS5003;67643;-34.198;22.084;2023-08-30T16:26:41;56;51;
63707;PMS5003;67643;-34.198;22.084;2023-08-30T16:29:10;58;51;
63707;PMS5003;67643;-34.198;22.084;2023-08-30T16:31:38;67;56;
63707;PMS5003;67643;-34.198;22.084;2023-08-30T16:34:06;62;54;
63707;PMS5003;67643;-34.198;22.084;2023-08-30T16:36:34;55;48;
63707;PMS5003;67643;-34.198;22.084;2023-08-30T16:39:03;61;55;
63707;PMS5003;67643;-34.198;22.084;2023-08-30T16:41:31;57;53;
63707;PMS5003;67643;-34.198;22.084;2023-08-30T16:43:59;60;51;
63707;PMS5003;67643;-34.198;22.084;2023-08-30T16:46:28;58;47;
63707;PMS5003;67643;-34.198;22.084;2023-08-30T16:48:56;54;49;
63707;PMS5003;67643;-34.198;22.084;2023-08-30T16:51:26;52;47;
63707;PMS5003;67643;-34.198;22.084;2023-08-30T16:53:54;53;49;
63707;PMS5003;67643;-34.198;22.084;2023-08-30T16:56:23;55;49;
63707;PMS5003;67643;-34.198;22.084;2023-08-30T16:58:51;49;47;
63707;PMS5003;67643;-34.198;22.084;2023-08-30T17:01:20;57;48;
63707;PMS5003;67643;-34.198;22.084;2023-08-30T17:03:49;53;48;
63707;PMS5003;67643;-34.198;22.084;2023-08-30T17:06:17;49;48;
63707;PMS5003;67643;-34.198;22.084;2023-08-30T17:08:45;49;45;
63707;PMS5003;67643;-34.198;22.084;2023-08-30T17:11:13;52;46;
63707;PMS5003;67643;-34.198;22.084;2023-08-30T17:13:42;56;48;
63707;PMS5003;67643;-34.198;22.084;2023-08-30T17:16:11;52;49;
63707;PMS5003;67643;-34.198;22.084;2023-08-30T17:18:40;51;45;
63707;PMS5003;67643;-34.198;22.084;2023-08-30T17:21:08;53;46;
63707;PMS5003;67643;-34.198;22.084;2023-08-30T17:23:38;54;48;
63707;PMS5003;67643;-34.198;22.084;2023-08-30T17:26:06;43;41;
63707;PMS5003;67643;-34.198;22.084;2023-08-30T17:28:34;55;48;
63707;PMS5003;67643;-34.198;22.084;2023-08-30T17:31:03;49;40;
63707;PMS5003;67643;-34.198;22.084;2023-08-30T17:33:31;55;45;
63707;PMS5003;67643;-34.198;22.084;2023-08-30T17:35:59;55;48;
63707;PMS5003;67643;-34.198;22.084;2023-08-30T17:38:27;59;51;
63707;PMS5003;67643;-34.198;22.084;2023-08-30T17:40:56;49;42;
63707;PMS5003;67643;-34.198;22.084;2023-08-30T17:43:25;47;44;
63707;PMS5003;67643;-34.198;22.084;2023-08-30T17:45:54;50;46;
63707;PMS5003;67643;-34.198;22.084;2023-08-30T17:48:22;45;42;
63707;PMS5003;67643;-34.198;22.084;2023-08-30T17:50:50;50;45;
63707;PMS5003;67643;-34.198;22.084;2023-08-30T17:53:18;45;41;
63707;PMS5003;67643;-34.198;22.084;2023-08-30T17:55:52;49;45;